IBE2KC LEGR-LEMD
Flight info
| Callsign | IBE2KC |
|---|---|
| Flight time | N/A |
| Altitude | 32000 |
| Route | VIBAS N865 MORAL |
| Aircraft | A20N/M-SDE2E3FGHIRWXY/LB1 |
Departure
| Time | 2026-04-14 13:16 |
|---|---|
| Airport | F.G.L. Airport Granada-Jaén Airport (LEGR) |
Arrival
| Time | N/A |
|---|---|
| Airport | Adolfo Suárez Madrid–Barajas Airport (LEMD) |
| Time | Latitude | Longitude | Altitude | Speed | Heading |
|---|---|---|---|---|---|
| 2026-04-14 13:01 | 37.18564 | -3.77656 | 1872 ft | 0 kts | 270° |
| 2026-04-14 13:05 | 37.18565 | -3.77665 | 1872 ft | 3 kts | 281° |
| 2026-04-14 13:05 | 37.18580 | -3.77686 | 1869 ft | 3 kts | 325° |
| 2026-04-14 13:06 | 37.18564 | -3.77656 | 1872 ft | 0 kts | 270° |
| 2026-04-14 13:12 | 37.18566 | -3.77677 | 1872 ft | 9 kts | 281° |
| 2026-04-14 13:12 | 37.18610 | -3.77704 | 1872 ft | 13 kts | 358° |
| 2026-04-14 13:13 | 37.18708 | -3.77720 | 1871 ft | 8 kts | 304° |
| 2026-04-14 13:13 | 37.18706 | -3.77853 | 1872 ft | 16 kts | 270° |
| 2026-04-14 13:13 | 37.18704 | -3.78159 | 1872 ft | 57 kts | 270° |
| 2026-04-14 13:13 | 37.18702 | -3.78636 | 1872 ft | 38 kts | 270° |
| 2026-04-14 13:14 | 37.18700 | -3.78935 | 1872 ft | 27 kts | 270° |
| 2026-04-14 13:14 | 37.18698 | -3.79173 | 1872 ft | 27 kts | 269° |
| 2026-04-14 13:14 | 37.18741 | -3.79322 | 1872 ft | 16 kts | 357° |
| 2026-04-14 13:14 | 37.18859 | -3.79282 | 1871 ft | 19 kts | 71° |
| 2026-04-14 13:15 | 37.18862 | -3.79128 | 1873 ft | 16 kts | 90° |
| 2026-04-14 13:15 | 37.18865 | -3.78900 | 1873 ft | 49 kts | 89° |
| 2026-04-14 13:15 | 37.18870 | -3.78207 | 1873 ft | 109 kts | 89° |
| 2026-04-14 13:15 | 37.18878 | -3.77005 | 1875 ft | 165 kts | 89° |
| 2026-04-14 13:16 | 37.18885 | -3.75513 | 2310 ft | 171 kts | 88° |
| 2026-04-14 13:16 | 37.18899 | -3.74017 | 2886 ft | 172 kts | 86° |
| 2026-04-14 13:16 | 37.18886 | -3.72512 | 3615 ft | 172 kts | 88° |
| 2026-04-14 13:16 | 37.18852 | -3.70997 | 4486 ft | 176 kts | 87° |
| 2026-04-14 13:17 | 37.18812 | -3.69446 | 5163 ft | 185 kts | 86° |
| 2026-04-14 13:17 | 37.18759 | -3.67790 | 5716 ft | 196 kts | 87° |
| 2026-04-14 13:17 | 37.18961 | -3.66102 | 6334 ft | 195 kts | 58° |
| 2026-04-14 13:17 | 37.19954 | -3.65083 | 7023 ft | 188 kts | 14° |
| 2026-04-14 13:18 | 37.21213 | -3.64713 | 7769 ft | 183 kts | 14° |
| 2026-04-14 13:18 | 37.22442 | -3.64310 | 8464 ft | 181 kts | 14° |
| 2026-04-14 13:18 | 37.23256 | -3.64060 | 8922 ft | 182 kts | 13° |
| 2026-04-14 13:18 | 37.24938 | -3.63709 | 9724 ft | 186 kts | 3° |
| 2026-04-14 13:19 | 37.26213 | -3.63682 | 10395 ft | 181 kts | 1° |
| 2026-04-14 13:19 | 37.27461 | -3.63628 | 11002 ft | 178 kts | 3° |
| 2026-04-14 13:19 | 37.28695 | -3.63531 | 11566 ft | 177 kts | 4° |
| 2026-04-14 13:19 | 37.29510 | -3.63439 | 11920 ft | 178 kts | 5° |
| 2026-04-14 13:20 | 37.30749 | -3.63310 | 12427 ft | 180 kts | 2° |
| 2026-04-14 13:20 | 37.32007 | -3.63263 | 12937 ft | 182 kts | 1° |
| 2026-04-14 13:20 | 37.33705 | -3.63209 | 13581 ft | 186 kts | 1° |
| 2026-04-14 13:20 | 37.34587 | -3.63186 | 13886 ft | 189 kts | 0° |
| 2026-04-14 13:21 | 37.35924 | -3.63160 | 14278 ft | 195 kts | 0° |
| 2026-04-14 13:21 | 37.37302 | -3.63145 | 14640 ft | 202 kts | 0° |
| 2026-04-14 13:21 | 37.38719 | -3.63139 | 14982 ft | 210 kts | 360° |
| 2026-04-14 13:21 | 37.40208 | -3.63146 | 15319 ft | 219 kts | 359° |
| 2026-04-14 13:22 | 37.41769 | -3.63166 | 15665 ft | 228 kts | 359° |
| 2026-04-14 13:22 | 37.43414 | -3.63203 | 15888 ft | 247 kts | 359° |
| 2026-04-14 13:22 | 37.45219 | -3.63259 | 16077 ft | 269 kts | 358° |
| 2026-04-14 13:22 | 37.47158 | -3.63335 | 16304 ft | 288 kts | 358° |
| 2026-04-14 13:23 | 37.49227 | -3.63372 | 16596 ft | 304 kts | 1° |
| 2026-04-14 13:23 | 37.51368 | -3.63285 | 17191 ft | 311 kts | 2° |
| 2026-04-14 13:23 | 37.53544 | -3.63163 | 17855 ft | 314 kts | 2° |
| 2026-04-14 13:23 | 37.55715 | -3.63056 | 18540 ft | 317 kts | 1° |
| 2026-04-14 13:24 | 37.57933 | -3.62976 | 19117 ft | 320 kts | 1° |
| 2026-04-14 13:24 | 37.62430 | -3.62894 | 20260 ft | 327 kts | 360° |
| 2026-04-14 13:24 | 37.64748 | -3.62875 | 20534 ft | 339 kts | 360° |
| 2026-04-14 13:25 | 37.67155 | -3.62860 | 20848 ft | 349 kts | 359° |
| 2026-04-14 13:25 | 37.69592 | -3.62844 | 21401 ft | 351 kts | 360° |
| 2026-04-14 13:26 | 37.76965 | -3.62788 | 23090 ft | 359 kts | 359° |
| 2026-04-14 13:26 | 37.79481 | -3.62769 | 23644 ft | 361 kts | 359° |
| 2026-04-14 13:26 | 37.82008 | -3.62749 | 24104 ft | 364 kts | 359° |
| 2026-04-14 13:26 | 37.84548 | -3.62728 | 24549 ft | 366 kts | 359° |
| 2026-04-14 13:27 | 37.87109 | -3.62707 | 24995 ft | 368 kts | 359° |
| 2026-04-14 13:27 | 37.89677 | -3.62686 | 25433 ft | 370 kts | 359° |
| 2026-04-14 13:27 | 37.92256 | -3.62664 | 25861 ft | 371 kts | 359° |
| 2026-04-14 13:27 | 37.94846 | -3.62643 | 26274 ft | 373 kts | 359° |
| 2026-04-14 13:28 | 37.97455 | -3.62621 | 26676 ft | 375 kts | 359° |
| 2026-04-14 13:28 | 38.00038 | -3.62599 | 27066 ft | 377 kts | 359° |
| 2026-04-14 13:28 | 38.02662 | -3.62577 | 27457 ft | 379 kts | 359° |
| 2026-04-14 13:28 | 38.05304 | -3.62555 | 27830 ft | 380 kts | 359° |
| 2026-04-14 13:29 | 38.07955 | -3.62534 | 28185 ft | 382 kts | 359° |
| 2026-04-14 13:29 | 38.10615 | -3.62512 | 28542 ft | 384 kts | 359° |
| 2026-04-14 13:29 | 38.13291 | -3.62489 | 28900 ft | 385 kts | 359° |
| 2026-04-14 13:29 | 38.15979 | -3.62393 | 29247 ft | 387 kts | 2° |
| 2026-04-14 13:30 | 38.18677 | -3.62162 | 29574 ft | 390 kts | 2° |
| 2026-04-14 13:30 | 38.21391 | -3.61898 | 29900 ft | 391 kts | 3° |
| 2026-04-14 13:30 | 38.24110 | -3.61630 | 30235 ft | 393 kts | 3° |
| 2026-04-14 13:30 | 38.26847 | -3.61362 | 30506 ft | 394 kts | 3° |
| 2026-04-14 13:31 | 38.29592 | -3.61094 | 30832 ft | 394 kts | 2° |
| 2026-04-14 13:31 | 38.32286 | -3.60831 | 31230 ft | 392 kts | 2° |
| 2026-04-14 13:31 | 38.34997 | -3.60567 | 31622 ft | 389 kts | 2° |
| 2026-04-14 13:31 | 38.37695 | -3.60305 | 31999 ft | 388 kts | 2° |
| 2026-04-14 13:32 | 38.40389 | -3.60044 | 32174 ft | 391 kts | 2° |
| 2026-04-14 13:32 | 38.43141 | -3.59778 | 32190 ft | 398 kts | 2° |
| 2026-04-14 13:32 | 38.48767 | -3.59234 | 32193 ft | 413 kts | 2° |
| 2026-04-14 13:33 | 38.54570 | -3.58669 | 32190 ft | 420 kts | 2° |
| 2026-04-14 13:33 | 38.60345 | -3.58105 | 32190 ft | 418 kts | 2° |
| 2026-04-14 13:34 | 38.69055 | -3.57254 | 32187 ft | 418 kts | 2° |
| 2026-04-14 13:35 | 38.74873 | -3.56686 | 32188 ft | 418 kts | 2° |
| 2026-04-14 13:35 | 38.80674 | -3.56117 | 32187 ft | 418 kts | 2° |
| 2026-04-14 13:36 | 38.86437 | -3.55551 | 32188 ft | 418 kts | 2° |
| 2026-04-14 13:36 | 38.92239 | -3.54981 | 32189 ft | 418 kts | 2° |
| 2026-04-14 13:37 | 38.98033 | -3.54673 | 32187 ft | 416 kts | 354° |
| 2026-04-14 13:37 | 39.00867 | -3.55430 | 32186 ft | 416 kts | 342° |
| 2026-04-14 13:37 | 39.03487 | -3.56992 | 31914 ft | 414 kts | 333° |
| 2026-04-14 13:37 | 39.05934 | -3.58897 | 31296 ft | 407 kts | 330° |
| 2026-04-14 13:38 | 39.08317 | -3.60848 | 30250 ft | 407 kts | 330° |
| 2026-04-14 13:38 | 39.10714 | -3.62817 | 29130 ft | 406 kts | 330° |
| 2026-04-14 13:38 | 39.13080 | -3.64754 | 28254 ft | 400 kts | 330° |
| 2026-04-14 13:38 | 39.15380 | -3.66631 | 27396 ft | 394 kts | 330° |
| 2026-04-14 13:39 | 39.17688 | -3.68510 | 26536 ft | 390 kts | 330° |
| 2026-04-14 13:39 | 39.19971 | -3.70367 | 25695 ft | 385 kts | 330° |
| 2026-04-14 13:39 | 39.22235 | -3.72209 | 24878 ft | 381 kts | 329° |
| 2026-04-14 13:39 | 39.24466 | -3.74024 | 24065 ft | 378 kts | 329° |
| 2026-04-14 13:40 | 39.26750 | -3.75666 | 23157 ft | 374 kts | 336° |
| 2026-04-14 13:40 | 39.29185 | -3.76808 | 22229 ft | 369 kts | 346° |
| 2026-04-14 13:40 | 39.31673 | -3.77285 | 21559 ft | 365 kts | 358° |
| 2026-04-14 13:40 | 39.34196 | -3.77073 | 20843 ft | 364 kts | 9° |
| 2026-04-14 13:41 | 39.36691 | -3.76314 | 19978 ft | 362 kts | 14° |
| 2026-04-14 13:41 | 39.39064 | -3.75440 | 19423 ft | 358 kts | 15° |
| 2026-04-14 13:41 | 39.41468 | -3.74533 | 18964 ft | 360 kts | 15° |
| 2026-04-14 13:41 | 39.43868 | -3.73629 | 18511 ft | 358 kts | 15° |
| 2026-04-14 13:42 | 39.46259 | -3.72730 | 17976 ft | 356 kts | 15° |
| 2026-04-14 13:42 | 39.48625 | -3.71844 | 17467 ft | 353 kts | 15° |
| 2026-04-14 13:42 | 39.50978 | -3.70963 | 16941 ft | 350 kts | 15° |
| 2026-04-14 13:42 | 39.53300 | -3.70094 | 16437 ft | 344 kts | 15° |
| 2026-04-14 13:43 | 39.55568 | -3.69244 | 15936 ft | 334 kts | 15° |
| 2026-04-14 13:43 | 39.57765 | -3.68421 | 15628 ft | 325 kts | 15° |
| 2026-04-14 13:43 | 39.59941 | -3.67607 | 15340 ft | 326 kts | 15° |
| 2026-04-14 13:43 | 39.62086 | -3.66803 | 15058 ft | 325 kts | 15° |
| 2026-04-14 13:44 | 39.64260 | -3.65988 | 14770 ft | 324 kts | 15° |
| 2026-04-14 13:44 | 39.66419 | -3.65178 | 14485 ft | 323 kts | 15° |